Logo AVAMET
Benvolgut visitant, si us plau, ingressa Recuperar contrasenya
AVAMET paisatges

Sueca les Palmeres

Dades diàries. Acumulats / Últims 30 dies disponibles

Data Temperatura (°C) Humitat rel. (%) Pressió rel. (hPa) Vent (km/h) Precipitació
Mínima Mitjana Màxima Amplitud
tèrmica
Mínima Mitjana Màxima Mínima Mitjana Màxima Predom. Mitjana Ràfega
màxima
Total
(mm)
Índex-n
Mínima Mitjana Màxima Mínima Mitjana Màxima n
0 a 1
P0 max
mm 5'
Dades mensuals acumulades fins l'últim dia disponible
03/2020 9,5 11,9 14,6 15,0 11,8 17,6 20,6 11,1 35 52 80 997 1.009 1.015   11,1 11,8 0,0
Dades anuals acumulades fins l'últim dia disponible
2020 4,3 9,5 15,0 13,0 11,8 16,8 25,9 21,6 23 88 98 997 1.020 1.030   11,1 11,8 113,5
Últims 30 dies disponibles
03-03-2020 9,5     10,7     11,8 2,3 43 51 60 1.013 1.014 1.015 NE 11,1 11,8 0,0
02-03-2020 11,6     17,1     20,6 9,0 35 45 52 997 1.003 1.013 NE 11,1 0,0
01-03-2020 14,6     17,2     20,3 5,7 43 61 80 1.007 1.010 1.012 NE 11,1 11,8 0,0
29-02-2020 9,1     16,0     22,8 13,7 33 68 98 1.007 1.010 1.015 NE 11,1 11,8 0,0
28-02-2020 11,7     15,3     20,7 9,0 33 72 98 1.015 1.017 1.019 NE 11,1 11,8 0,0
27-02-2020 8,0     15,6     22,1 14,1 33 58 98 1.013 1.016 1.017 NE 11,1 11,8 0,0
26-02-2020 11,3     15,1     20,6 9,3 36 80 98 1.013 1.014 1.017 NE 11,1 11,8 0,0
25-02-2020 10,6     16,2     24,1 13,5 23 65 98 1.010 1.013 1.017 NE 11,1 11,8 0,0
24-02-2020 7,9     12,7     16,5 8,6 53 94 98 1.017 1.022 1.027 NE 11,1 11,8 0,0
23-02-2020 7,2     12,2     15,9 8,7 71 97 98 1.026 1.029 1.030 NE 11,1 11,8 0,0
22-02-2020 7,5     12,0     15,5 8,0 98 98 98 1.026 1.028 1.030 NE 11,1 11,8 0,0
21-02-2020 6,7     11,3     14,2 7,5 97 98 98 1.023 1.026 1.028 NE 11,1 11,8 0,0
20-02-2020 8,3     12,1     15,1 6,8 90 98 98 1.020 1.022 1.025 NE 11,1 11,8 0,0
19-02-2020 10,6     13,6     14,5 3,9 86 97 98 1.025 1.027 1.029 NE 11,1 11,8 0,0
18-02-2020 13,7     14,6     15,2 1,5 97 98 98 1.026 1.027 1.029 NE 11,1 11,8 0,0
17-02-2020 8,4     14,5     23,0 14,6 45 90 98 1.019 1.021 1.026 NE 11,1 11,8 0,0
16-02-2020 11,4     13,6     15,1 3,7 98 98 98 1.021 1.023 1.024 NE 11,1 11,8 0,0
15-02-2020 8,5     12,7     16,5 8,0 96 98 98 1.020 1.022 1.024 NE 11,1 11,8 0,0
14-02-2020 11,5     14,6     18,0 6,5 71 94 98 1.020 1.021 1.022 NE 11,1 11,8 0,0
13-02-2020 11,1     14,5     18,7 7,6 79 96 98 1.017 1.019 1.020 NE 11,1 11,8 0,0
12-02-2020 11,6     14,0     17,3 5,7 92 98 98 1.020 1.021 1.022 NE 11,1 11,8 0,0
11-02-2020 14,2     16,4     21,6 7,4 52 92 98 1.018 1.020 1.022 NE 11,1 11,8 0,0
10-02-2020 12,4     17,0     22,5 10,1 54 79 95 1.021 1.024 1.027 NE 11,1 11,8 0,0
09-02-2020 8,9     12,5     14,8 5,9 90 98 98 1.023 1.025 1.027 NE 11,1 11,8 0,0
08-02-2020 7,3     11,6     14,5 7,2 96 98 98 1.019 1.021 1.024 NE 11,1 11,8 0,0
07-02-2020 9,1     11,5     14,3 5,2 87 96 98 1.019 1.021 1.022 NE 11,1 11,8 0,0
06-02-2020 8,0     11,5     13,8 5,8 87 96 98 1.021 1.023 1.025 NE 11,1 11,8 0,0
05-02-2020 9,9     13,1     16,5 6,6 81 96 98 1.023 1.025 1.028 NE 11,1 11,8 0,0
04-02-2020 14,6     18,3     25,9 11,3 30 70 98 1.018 1.021 1.023 NE 11,1 11,8 0,0
03-02-2020 13,4     16,8     22,3 8,9 64 92 98 1.023 1.024 1.026 NE 11,1 11,8 0,0
Últims 13 mesos disponibles
02/2020 6,7 10,4 15,0 14,3 13,8 18,6 25,9 19,2 58 89 98 1.010 1.022 1.029 NE 11,1 11,8 0,0
01/2020 4,3 8,5 14,5 11,6 12,5 15,1 19,9 15,6 69 91 98 1.011 1.021 1.028 NE 11,1 11,8 113,5
12/2019 6,4 11,5 17,1 14,1 11,9 16,7 24,0 17,6 55 87 98 998 1.015 1.028 NE 11,1 11,8 135,2
11/2019 7,2 12,2 20,7 15,3 15,1 18,9 26,8 19,6 47 69 98 994 1.007 1.014 NE 11,1 11,8 5,0
10/2019 11,2 15,8 20,8 19,6 18,4 23,5 33,5 22,3 46 86 98 1.004 1.013 1.018 NE 11,1 11,8 53,6
09/2019 14,9 20,7 24,8 23,5 23,2 25,6 31,1 16,2 51 91 98 1.008 1.015 1.021 NE 11,1 11,8 63,1
08/2019 18,2 22,0 26,3 25,2 25,6 27,8 36,8 18,6 68 93 98 1.009 1.014 1.018 NE 10,4 50,0 4,0
07/2019 20,2 22,1 25,3 25,3 25,5 27,4 32,3 12,1 63 92 98 1.003 1.012 1.019 NE 9,6 53,7 2,0
06/2019 13,4 18,1 22,4 21,2 19,4 23,7 28,7 15,3 53 89 98 1.006 1.013 1.019 NE 10,2 55,7 0,0
05/2019 9,4 14,8 20,4 18,1 16,5 20,8 31,2 21,8 51 85 98 1.002 1.012 1.021 NE 11,0 55,7 2,0
04/2019 8,2 11,6 15,0 15,1 12,3 17,8 28,4 20,2 32 80 98 996 1.011 1.021 NE 15,5 76,6 56,5
03/2019 4,3 8,4 14,8 13,3 13,6 17,6 27,6 23,3 40 75 95 1.007 1.019 1.026 NE 10,7 64,8 11,0
02/2019 3,4 7,0 11,0 11,5 12,2 15,8 21,3 17,9 35 78 96 991 1.020 1.029 NE 12,0 74,7 0,0
Tots els anys disponibles
2019 2,3 14,2 26,3 17,7 11,2 20,9 36,8 34,5 32 82 98 991 1.014 1.029 NE 11,4 76,6 333,4
2018 1,7 15,3 26,0 18,6 8,4 21,5 33,3 31,6 32 80 98 989 1.013 1.032 NE 10,3 74,0 587,2
Temperatura (°C)
Humitat relativa (%)
Velocitat del vent i ràfega màxima (km/h)
Direcció del vent (°)
Pressió (hPa)
Precipitació (mm)
Nota sobre les dades: s'avisa a l'usuari de la provisionalitat i no oficialitat d'aquestes dades
Logo AVAMET blanc
Web allotjada a Sollutia
Llicència de Creative CommonsLa web d'AVAMET i els seus continguts estan subjectes a una llicència de
Reconeixement - No Comercial - Compartir igual
Últimes estacions:  Chera (Ajuntament soci), Benifaió (Inforatge), Altea - Com. Regants (Soci) - - -